Kota Waris — S6RJ — position and weather

sailwx.info

Track history (hours):
 
Tides and Currents Weather Stations Pressure Air Temp Water Temp Dewpoint Dewpoint Depression Visibility Wind Speed Wind Dir Waves Ship Positions

Kota Waris

Last reported at 2016-Aug-22 13:08 UTC. Time now 2016-Aug-26 01:30 UTC.
Position N 01°16' E 104°08'.

Length 185 m; draft 8.1 m.

Type: Cargo ship. MMSI: 564482000.

Date/timePositionNaut miles runAvg speedWind from/ knotsBaromVisibWave heightAir tempDewpointWater temp
2016-Aug-22 13:08N 01°16' E 104°08'916.4
2016-Aug-22 12:33N 01°14' E 103°59'8 8.0
2016-Aug-22 11:33N 01°15' E 103°51'1 1.4
2016-Aug-22 10:32N 01°16' E 103°50'0 0.0
2016-Aug-22 09:17N 01°16' E 103°50'0 0.0
2016-Aug-22 08:32N 01°16' E 103°50'0 0.0
2016-Aug-22 07:32N 01°16' E 103°50'0 0.0
2016-Aug-22 06:32N 01°16' E 103°50'0 0.0
2016-Aug-22 05:32N 01°16' E 103°50'0 0.0
2016-Aug-22 04:26N 01°16' E 103°50'0 0.0
2016-Aug-22 03:32N 01°16' E 103°50'0 0.0
2016-Aug-22 02:26N 01°16' E 103°50'0 0.0
2016-Aug-22 01:32N 01°16' E 103°50'0 0.0
2016-Aug-22 00:32N 01°16' E 103°50'0 0.0
2016-Aug-21 23:32N 01°16' E 103°50'0 0.0
2016-Aug-21 22:32N 01°16' E 103°50'0 0.0
2016-Aug-21 21:32N 01°16' E 103°50'0 0.0
2016-Aug-21 20:32N 01°16' E 103°50'0 0.0
2016-Aug-21 19:32N 01°16' E 103°50'0 0.0
2016-Aug-21 18:24N 01°16' E 103°50'0 0.3
2016-Aug-21 17:33N 01°16' E 103°50'3 2.0
2016-Aug-21 16:10N 01°16' E 103°53'0 0.0
2016-Aug-21 15:16N 01°16' E 103°53'0 0.0
2016-Aug-21 14:28N 01°16' E 103°53'0 0.0
2016-Aug-21 13:28N 01°16' E 103°53'0 0.0
2016-Aug-21 12:28N 01°16' E 103°53'0 0.0
2016-Aug-21 11:31N 01°16' E 103°53'0 0.1
2016-Aug-21 10:19N 01°16' E 103°53'0 0.1
2016-Aug-21 09:16N 01°16' E 103°53'0 0.1
2016-Aug-21 08:25N 01°16' E 103°53'0 0.1
2016-Aug-21 07:28N 01°16' E 103°53'0 0.0
2016-Aug-21 06:28N 01°16' E 103°53'0 0.1
2016-Aug-21 05:28N 01°16' E 103°53'0 0.1
2016-Aug-21 04:22N 01°16' E 103°53'0 0.0
2016-Aug-21 03:31N 01°16' E 103°53'5 4.7
2016-Aug-21 02:33N 01°12' E 103°51'1 1.3
2016-Aug-21 01:33N 01°13' E 103°50'8 7.9
2016-Aug-21 00:33N 01°15' E 103°57'1110.7
2016-Aug-20 23:31N 01°17' E 104°08'  
Track history (hours):
 
Tides and Currents Weather Stations Pressure Air Temp Water Temp Dewpoint Dewpoint Depression Visibility Wind Speed Wind Dir Waves Ship Positions

Kota Waris

Last reported at 2016-Aug-22 13:08 UTC. Time now 2016-Aug-26 01:30 UTC.
Position N 01°16' E 104°08'.

Length 185 m; draft 8.1 m.

Type: Cargo ship. MMSI: 564482000.

Date/timePositionNaut miles runAvg speedWind from/ knotsBaromVisibWave heightAir tempDewpointWater temp
2016-Aug-22 13:08N 01°16' E 104°08'916.4
2016-Aug-22 12:33N 01°14' E 103°59'8 8.0
2016-Aug-22 11:33N 01°15' E 103°51'1 1.4
2016-Aug-22 10:32N 01°16' E 103°50'0 0.0
2016-Aug-22 09:17N 01°16' E 103°50'0 0.0
2016-Aug-22 08:32N 01°16' E 103°50'0 0.0
2016-Aug-22 07:32N 01°16' E 103°50'0 0.0
2016-Aug-22 06:32N 01°16' E 103°50'0 0.0
2016-Aug-22 05:32N 01°16' E 103°50'0 0.0
2016-Aug-22 04:26N 01°16' E 103°50'0 0.0
2016-Aug-22 03:32N 01°16' E 103°50'0 0.0
2016-Aug-22 02:26N 01°16' E 103°50'0 0.0
2016-Aug-22 01:32N 01°16' E 103°50'0 0.0
2016-Aug-22 00:32N 01°16' E 103°50'0 0.0
2016-Aug-21 23:32N 01°16' E 103°50'0 0.0
2016-Aug-21 22:32N 01°16' E 103°50'0 0.0
2016-Aug-21 21:32N 01°16' E 103°50'0 0.0
2016-Aug-21 20:32N 01°16' E 103°50'0 0.0
2016-Aug-21 19:32N 01°16' E 103°50'0 0.0
2016-Aug-21 18:24N 01°16' E 103°50'0 0.3
2016-Aug-21 17:33N 01°16' E 103°50'3 2.0
2016-Aug-21 16:10N 01°16' E 103°53'0 0.0
2016-Aug-21 15:16N 01°16' E 103°53'0 0.0
2016-Aug-21 14:28N 01°16' E 103°53'0 0.0
2016-Aug-21 13:28N 01°16' E 103°53'0 0.0
2016-Aug-21 12:28N 01°16' E 103°53'0 0.0
2016-Aug-21 11:31N 01°16' E 103°53'0 0.1
2016-Aug-21 10:19N 01°16' E 103°53'0 0.1
2016-Aug-21 09:16N 01°16' E 103°53'0 0.1
2016-Aug-21 08:25N 01°16' E 103°53'0 0.1
2016-Aug-21 07:28N 01°16' E 103°53'0 0.0
2016-Aug-21 06:28N 01°16' E 103°53'0 0.1
2016-Aug-21 05:28N 01°16' E 103°53'0 0.1
2016-Aug-21 04:22N 01°16' E 103°53'0 0.0
2016-Aug-21 03:31N 01°16' E 103°53'5 4.7
2016-Aug-21 02:33N 01°12' E 103°51'1 1.3
2016-Aug-21 01:33N 01°13' E 103°50'8 7.9
2016-Aug-21 00:33N 01°15' E 103°57'1110.7
2016-Aug-20 23:31N 01°17' E 104°08'  

Dump ship's entire track history